Time;durP1;ratioP1;P1;durP2;ratioP2;P2;SDS_P1;SDS_P2;PMS_P1;PMS_P2;Temp;Humidity;BMP_temperature;BMP_pressure;BME280_temperature;BME280_humidity;BME280_pressure;Samples;Min_cycle;Max_cycle;Signal;HPM_P1;HPM_P2
2022/10/22 00:00:36;;;;;;;;;;;;;;;20.16;57.48;101685.38;7405389;19;1414;-67
2022/10/22 00:03:05;;;;;;;;;;;;;;;20.11;57.90;101681.34;7407363;19;1355;-67
2022/10/22 00:05:33;;;;;;;;;;;;;;;20.09;57.74;101676.09;7407328;19;1852;-67
2022/10/22 00:08:01;;;;;;;;;;;;;;;20.09;57.64;101668.03;7410282;19;1553;-67
2022/10/22 00:10:32;;;;;;;;;;;;;;;20.10;57.66;101664.38;7407643;19;1379;-63
2022/10/22 00:13:01;;;;;;;;;;;;;;;20.11;57.64;101651.81;7407982;19;1500;-67
2022/10/22 00:15:29;;;;;;;;;;;;;;;20.06;57.62;101653.03;7409047;19;1555;-63
2022/10/22 00:17:58;;;;;;;;;;;;;;;20.09;57.53;101643.03;7410455;19;1528;-67
2022/10/22 00:20:26;;;;;;;;;;;;;;;20.09;57.58;101646.56;7408342;19;1512;-62
2022/10/22 00:22:54;;;;;;;;;;;;;;;20.05;57.81;101645.09;7409111;19;1809;-63
2022/10/22 00:25:23;;;;;;;;;;;;;;;20.09;57.96;101643.88;7408266;19;1849;-68
2022/10/22 00:27:54;;;;;;;;;;;;;;;20.04;57.50;101624.59;7407010;19;1636;-68
2022/10/22 00:30:22;;;;;;;;;;;;;;;20.06;57.83;101631.56;7408968;19;1632;-62
2022/10/22 00:32:51;;;;;;;;;;;;;;;20.05;57.59;101639.72;7407100;19;1570;-62
2022/10/22 00:35:19;;;;;;;;;;;;;;;20.05;57.69;101667.44;7404772;19;1702;-62
2022/10/22 00:37:48;;;;;;;;;;;;;;;20.03;57.48;101639.88;7410062;19;1905;-67
2022/10/22 00:40:16;;;;;;;;;;;;;;;20.04;57.73;101654.13;7409108;19;1545;-67
2022/10/22 00:42:44;;;;;;;;;;;;;;;20.05;57.84;101648.66;7408228;19;1573;-62
2022/10/22 00:45:24;;;;;;;;;;;;;;;20.05;57.51;101623.63;7405243;19;1846;-62
2022/10/22 00:47:56;;;;;;;;;;;;;;;20.02;57.46;101622.03;7409003;19;1402;-63
2022/10/22 00:50:26;;;;;;;;;;;;;;;20.00;57.53;101617.78;7408803;19;1347;-68
2022/10/22 00:52:56;;;;;;;;;;;;;;;20.04;57.66;101638.03;7408139;19;1367;-62
2022/10/22 00:55:25;;;;;;;;;;;;;;;20.03;57.80;101639.00;7408515;19;1453;-63
2022/10/22 00:57:55;;;;;;;;;;;;;;;20.03;57.46;101626.44;7405147;19;1494;-67
2022/10/22 01:00:27;;;;;;;;;;;;;;;20.04;57.39;101627.28;7406209;19;1372;-62
2022/10/22 01:02:56;;;;;;;;;;;;;;;20.12;57.60;101616.78;7406189;19;1686;-67
2022/10/22 01:05:24;;;;;;;;;;;;;;;20.62;56.63;101625.31;7404764;19;1859;-62
2022/10/22 01:07:54;;;;;;;;;;;;;;;21.25;55.06;101613.88;7407003;19;1407;-68
2022/10/22 01:10:29;;;;;;;;;;;;;;;21.66;53.91;101598.72;7407824;19;1352;-67
2022/10/22 01:13:04;;;;;;;;;;;;;;;22.09;53.35;101608.44;7408217;19;1292;-63
2022/10/22 01:15:39;;;;;;;;;;;;;;;22.00;53.52;101609.22;7407451;19;1541;-68
2022/10/22 01:18:09;;;;;;;;;;;;;;;21.43;54.68;101601.56;7405262;19;1394;-62
2022/10/22 01:20:52;;;;;;;;;;;;;;;21.11;55.75;101596.19;7406622;19;1584;-63
2022/10/22 01:23:33;;;;;;;;;;;;;;;21.22;55.75;101588.06;7404754;19;1477;-67
2022/10/22 01:26:07;;;;;;;;;;;;;;;21.54;54.66;101594.41;7404646;19;1841;-62
2022/10/22 01:28:52;;;;;;;;;;;;;;;21.33;55.03;101589.84;7404072;19;1748;-67
2022/10/22 01:31:22;;;;;;;;;;;;;;;21.11;55.69;101573.81;7406761;19;1303;-62
2022/10/22 01:33:51;;;;;;;;;;;;;;;21.25;55.42;101603.94;7408405;19;1333;-63
2022/10/22 01:36:20;;;;;;;;;;;;;;;21.70;54.60;101597.47;7406427;19;1697;-68
2022/10/22 01:38:51;;;;;;;;;;;;;;;21.39;55.11;101578.56;7405736;19;1505;-67
2022/10/22 01:41:20;;;;;;;;;;;;;;;21.17;55.61;101589.44;7404757;19;1619;-63
2022/10/22 01:43:50;;;;;;;;;;;;;;;21.26;55.64;101577.91;7407282;19;1598;-68
2022/10/22 01:46:20;;;;;;;;;;;;;;;21.57;54.67;101583.38;7405182;19;1843;-62
2022/10/22 01:48:55;;;;;;;;;;;;;;;21.34;55.43;101591.53;7404589;19;1809;-63
2022/10/22 01:51:31;;;;;;;;;;;;;;;21.15;55.93;101583.31;7408087;19;1663;-62
2022/10/22 01:54:03;;;;;;;;;;;;;;;21.27;55.50;101585.00;7404589;19;1737;-62
2022/10/22 01:56:43;;;;;;;;;;;;;;;21.57;54.76;101564.53;7406843;19;1644;-67
2022/10/22 01:59:17;;;;;;;;;;;;;;;21.34;55.20;101578.09;7404160;19;1862;-63
2022/10/22 02:01:50;;;;;;;;;;;;;;;21.22;56.01;101579.16;7398484;19;1718;-63
2022/10/22 02:04:21;;;;;;;;;;;;;;;21.32;55.69;101563.91;7404633;19;1845;-63
2022/10/22 02:06:50;;;;;;;;;;;;;;;21.59;54.77;101576.03;7405090;19;1346;-63
2022/10/22 02:09:21;;;;;;;;;;;;;;;21.40;55.40;101576.72;7404223;19;1434;-63
2022/10/22 02:11:50;;;;;;;;;;;;;;;21.18;55.88;101577.69;7405135;19;1638;-63
2022/10/22 02:14:22;;;;;;;;;;;;;;;21.27;55.51;101582.31;7404647;19;1544;-62
2022/10/22 02:16:52;;;;;;;;;;;;;;;21.64;54.67;101576.47;7405368;19;1489;-63
2022/10/22 02:19:24;;;;;;;;;;;;;;;21.51;55.10;101575.84;7406780;19;1524;-63
2022/10/22 02:21:54;;;;;;;;;;;;;;;21.23;55.77;101588.94;7406218;19;1623;-63
2022/10/22 02:24:23;;;;;;;;;;;;;;;21.23;55.74;101597.84;7405917;19;1853;-63
2022/10/22 02:26:54;;;;;;;;;;;;;;;21.59;54.93;101584.09;7404466;19;1671;-63
2022/10/22 02:29:29;;;;;;;;;;;;;;;21.56;54.92;101560.13;7405497;19;1418;-63
2022/10/22 02:31:59;;;;;;;;;;;;;;;21.27;55.57;101568.84;7402891;19;1387;-63
2022/10/22 02:34:32;;;;;;;;;;;;;;;21.15;55.96;101560.00;7404415;19;1252;-63
2022/10/22 02:37:01;;;;;;;;;;;;;;;21.42;55.33;101561.28;7405273;19;1313;-63
2022/10/22 02:39:29;;;;;;;;;;;;;;;21.59;55.02;101551.81;7404029;19;1556;-63
2022/10/22 02:41:58;;;;;;;;;;;;;;;21.35;55.30;101555.59;7404675;19;1313;-63
2022/10/22 02:44:29;;;;;;;;;;;;;;;21.16;56.13;101550.94;7401987;19;1850;-62
2022/10/22 02:46:58;;;;;;;;;;;;;;;21.28;55.69;101553.56;7404384;19;1368;-63
2022/10/22 02:49:26;;;;;;;;;;;;;;;21.58;55.04;101544.69;7404140;19;1314;-63
2022/10/22 02:51:56;;;;;;;;;;;;;;;21.41;55.22;101555.06;7391629;19;1326;-63
2022/10/22 02:54:24;;;;;;;;;;;;;;;21.06;56.86;101566.97;7398354;19;1485;-61
2022/10/22 02:56:53;;;;;;;;;;;;;;;21.24;56.92;101542.19;7401764;19;1646;-63
2022/10/22 02:59:21;;;;;;;;;;;;;;;21.59;56.62;101530.28;7402948;19;1386;-63
2022/10/22 03:01:52;;;;;;;;;;;;;;;21.64;56.58;101550.41;7402360;19;1383;-64
2022/10/22 03:04:20;;;;;;;;;;;;;;;21.34;57.65;101537.72;7404067;19;1410;-62
2022/10/22 03:06:49;;;;;;;;;;;;;;;21.39;57.81;101540.91;7401125;19;1851;-62
2022/10/22 03:09:17;;;;;;;;;;;;;;;21.55;57.11;101539.59;7398321;19;1454;-65
2022/10/22 03:11:45;;;;;;;;;;;;;;;21.69;56.68;101531.16;7400704;19;1311;-67
2022/10/22 03:14:14;;;;;;;;;;;;;;;21.55;57.35;101536.91;7403657;19;1290;-64
2022/10/22 03:16:42;;;;;;;;;;;;;;;21.24;57.58;101526.91;7403409;19;1247;-63
2022/10/22 03:19:13;;;;;;;;;;;;;;;21.37;57.64;101531.25;7402165;19;1326;-63
2022/10/22 03:21:44;;;;;;;;;;;;;;;21.63;56.93;101537.09;7402585;19;1302;-63
2022/10/22 03:24:13;;;;;;;;;;;;;;;22.06;56.28;101533.28;7403286;19;1556;-66
2022/10/22 03:26:43;;;;;;;;;;;;;;;22.09;56.28;101522.25;7400055;19;1853;-64
2022/10/22 03:29:13;;;;;;;;;;;;;;;22.13;56.24;101523.66;7402759;19;1345;-65
2022/10/22 03:31:41;;;;;;;;;;;;;;;22.07;56.46;101537.69;7402584;19;1223;-62
2022/10/22 03:34:10;;;;;;;;;;;;;;;21.72;57.38;101535.41;7402589;19;1251;-64
2022/10/22 03:36:41;;;;;;;;;;;;;;;21.68;57.63;101542.91;7403451;19;1251;-61
2022/10/22 03:39:11;;;;;;;;;;;;;;;21.81;57.55;101543.53;7402344;19;1670;-64
2022/10/22 03:41:39;;;;;;;;;;;;;;;22.16;56.93;101530.63;7399113;19;1714;-64
2022/10/22 03:44:08;;;;;;;;;;;;;;;22.29;56.54;101535.81;7404742;19;1452;-64
2022/10/22 03:46:36;;;;;;;;;;;;;;;22.09;57.05;101524.94;7402088;19;1865;-65
2022/10/22 03:49:05;;;;;;;;;;;;;;;21.67;57.88;101517.00;7404121;19;1193;-65
2022/10/22 03:51:34;;;;;;;;;;;;;;;21.77;57.93;101519.72;7401553;19;1763;-65
2022/10/22 03:54:06;;;;;;;;;;;;;;;21.97;57.08;101501.81;7398382;19;1349;-61
2022/10/22 03:56:34;;;;;;;;;;;;;;;21.93;57.24;101522.75;7396837;19;1434;-61
2022/10/22 03:59:03;;;;;;;;;;;;;;;21.92;57.74;101530.97;7395076;19;1228;-60
2022/10/22 04:01:31;;;;;;;;;;;;;;;21.69;57.97;101536.56;7396057;19;1471;-59
2022/10/22 04:04:00;;;;;;;;;;;;;;;21.68;58.21;101537.53;7403057;19;1498;-62
2022/10/22 04:06:30;;;;;;;;;;;;;;;21.78;57.97;101551.88;7399288;19;1875;-66
2022/10/22 04:08:59;;;;;;;;;;;;;;;21.64;58.60;101549.56;7401042;19;1517;-68
2022/10/22 04:11:30;;;;;;;;;;;;;;;21.49;59.04;101527.53;7406991;19;1410;-65
2022/10/22 04:13:59;;;;;;;;;;;;;;;21.36;60.03;101548.38;7406555;19;1528;-64
2022/10/22 04:16:29;;;;;;;;;;;;;;;21.25;59.74;101541.25;7409750;19;1693;-62
2022/10/22 04:18:58;;;;;;;;;;;;;;;21.50;59.32;101533.75;7408833;19;1438;-61
2022/10/22 04:21:27;;;;;;;;;;;;;;;21.47;58.88;101528.63;7410008;19;1433;-64
2022/10/22 04:23:55;;;;;;;;;;;;;;;21.35;59.27;101539.47;7407338;19;1681;-66
2022/10/22 04:26:23;;;;;;;;;;;;;;;21.26;59.82;101529.47;7408334;19;1865;-63
2022/10/22 04:28:55;;;;;;;;;;;;;;;21.41;59.14;101547.00;7410248;19;1577;-61
2022/10/22 04:31:24;;;;;;;;;;;;;;;21.64;58.99;101541.47;7409217;19;1683;-65
2022/10/22 04:33:54;;;;;;;;;;;;;;;21.49;59.01;101537.41;7408233;19;1496;-64
2022/10/22 04:36:23;;;;;;;;;;;;;;;21.31;59.48;101527.25;7410141;19;1529;-64
2022/10/22 05:06:25;;;;;;;;;;;;;;;21.27;59.54;101574.25;7425377;19;1986;-35
2022/10/22 05:08:55;;;;;;;;;;;;;;;21.28;59.90;101570.53;7432198;19;1871;-35
2022/10/22 05:11:24;;;;;;;;;;;;;;;21.16;55.65;101560.84;7435084;19;1631;-34
2022/10/22 05:13:52;;;;;;;;;;;;;;;21.02;58.36;101575.44;7430874;19;1585;-35
2022/10/22 05:16:21;;;;;;;;;;;;;;;20.97;58.60;101566.91;7416474;19;2159;-34
2022/10/22 05:18:49;;;;;;;;;;;;;;;21.30;57.99;101552.44;7421502;19;2222;-34
2022/10/22 05:21:18;;;;;;;;;;;;;;;21.60;57.02;101550.81;7433813;19;2057;-34
2022/10/22 05:23:49;;;;;;;;;;;;;;;21.74;57.32;101539.69;7433024;19;1900;-35
2022/10/22 05:26:18;;;;;;;;;;;;;;;22.04;56.59;101562.19;7433896;19;1629;-34
2022/10/22 05:28:47;;;;;;;;;;;;;;;22.04;56.51;101557.69;7436107;19;1821;-35
2022/10/22 05:31:16;;;;;;;;;;;;;;;22.05;56.92;101574.69;7436595;19;1811;-36
2022/10/22 05:33:45;;;;;;;;;;;;;;;22.09;56.80;101569.88;7434139;19;2048;-34
2022/10/22 05:36:14;;;;;;;;;;;;;;;21.94;57.05;101562.16;7433618;19;1832;-33
2022/10/22 05:38:42;;;;;;;;;;;;;;;21.80;57.50;101566.06;7435007;19;1826;-33
2022/10/22 05:41:14;;;;;;;;;;;;;;;21.92;57.13;101561.44;7432660;19;1860;-35
2022/10/22 05:43:42;;;;;;;;;;;;;;;22.20;56.70;101584.09;7433523;19;1566;-34
2022/10/22 05:46:12;;;;;;;;;;;;;;;22.21;56.91;101583.09;7436116;19;1909;-34
2022/10/22 05:48:40;;;;;;;;;;;;;;;22.27;56.92;101583.59;7430842;19;1809;-37
2022/10/22 05:51:11;;;;;;;;;;;;;;;22.28;56.69;101574.50;7434328;19;1491;-34
2022/10/22 05:53:40;;;;;;;;;;;;;;;22.23;57.05;101566.81;7399087;19;1755;-34
2022/10/22 05:56:09;;;;;;;;;;;;;;;22.42;56.41;101552.53;7404963;19;1569;-36
2022/10/22 05:58:40;;;;;;;;;;;;;;;22.62;55.86;101551.59;7405724;19;1806;-34
2022/10/22 06:01:09;;;;;;;;;;;;;;;22.61;56.02;101560.66;7405336;19;2033;-34
2022/10/22 06:03:38;;;;;;;;;;;;;;;22.59;56.52;101556.41;7403705;19;1622;-34
2022/10/22 06:06:09;;;;;;;;;;;;;;;22.38;56.57;101567.28;7398586;19;1823;-36
2022/10/22 06:08:37;;;;;;;;;;;;;;;22.47;57.02;101562.94;7406705;19;1838;-34
2022/10/22 06:11:06;;;;;;;;;;;;;;;22.46;57.20;101559.34;7404304;19;1889;-34
2022/10/22 06:13:34;;;;;;;;;;;;;;;22.34;57.52;101563.16;7404973;19;1888;-34
2022/10/22 06:16:05;;;;;;;;;;;;;;;22.60;56.42;101561.66;7405109;19;1538;-34
2022/10/22 06:18:34;;;;;;;;;;;;;;;22.42;55.86;101558.81;7403654;19;1925;-35
2022/10/22 06:21:06;;;;;;;;;;;;;;;22.52;55.24;101549.88;7404581;19;1901;-34
2022/10/22 06:23:34;;;;;;;;;;;;;;;22.61;55.35;101539.09;7403099;19;1522;-34
2022/10/22 06:26:03;;;;;;;;;;;;;;;22.44;55.54;101550.56;7406085;19;1945;-34
2022/10/22 06:28:31;;;;;;;;;;;;;;;22.04;56.37;101537.94;7405536;19;1557;-35
2022/10/22 06:31:00;;;;;;;;;;;;;;;21.71;57.57;101539.97;7404752;19;1898;-34
2022/10/22 06:33:33;;;;;;;;;;;;;;;21.56;57.73;101535.91;7402754;19;2119;-36
2022/10/22 06:36:06;;;;;;;;;;;;;;;21.43;58.33;101515.47;7402099;19;1922;-34
2022/10/22 06:38:34;;;;;;;;;;;;;;;21.36;58.10;101525.00;7405600;19;1015;-34
2022/10/22 06:41:04;;;;;;;;;;;;;;;21.29;58.49;101529.22;7400552;19;2017;-36
2022/10/22 06:43:32;;;;;;;;;;;;;;;21.23;58.54;101524.38;7403520;19;1828;-34
2022/10/22 06:46:01;;;;;;;;;;;;;;;21.20;58.54;101532.69;7405679;19;1814;-34
2022/10/22 06:48:34;;;;;;;;;;;;;;;21.19;58.54;101528.31;7403075;19;1840;-34
2022/10/22 06:51:03;;;;;;;;;;;;;;;21.02;53.83;101527.06;7404225;19;1665;-34
2022/10/22 06:53:31;;;;;;;;;;;;;;;20.63;55.55;101507.91;7399497;19;2060;-35
2022/10/22 06:55:59;;;;;;;;;;;;;;;20.86;54.20;101527.50;7401155;19;1884;-34
2022/10/22 06:58:28;;;;;;;;;;;;;;;20.79;54.99;101537.03;7402920;19;1819;-34
2022/10/22 07:01:02;;;;;;;;;;;;;;;20.71;55.70;101518.91;7402319;19;1846;-35
2022/10/22 07:03:36;;;;;;;;;;;;;;;20.70;56.97;101522.56;7397174;19;1870;-35
2022/10/22 07:06:06;;;;;;;;;;;;;;;20.72;56.56;101523.28;7390581;19;1792;-33
2022/10/22 07:08:34;;;;;;;;;;;;;;;20.69;57.31;101520.88;7399595;19;1914;-33
2022/10/22 07:11:07;;;;;;;;;;;;;;;20.69;57.49;101520.88;7403421;19;1906;-32
2022/10/22 07:13:35;;;;;;;;;;;;;;;20.66;57.76;101511.19;7404363;19;1806;-34
2022/10/22 07:16:03;;;;;;;;;;;;;;;20.70;58.04;101519.03;7403571;19;1822;-33
2022/10/22 07:18:35;;;;;;;;;;;;;;;20.65;58.26;101522.94;7402336;19;1926;-33
2022/10/22 07:21:03;;;;;;;;;;;;;;;20.59;58.49;101501.97;7397913;19;1948;-33
2022/10/22 07:23:31;;;;;;;;;;;;;;;20.59;58.48;101499.28;7403528;19;1816;-33
2022/10/22 07:26:01;;;;;;;;;;;;;;;20.56;58.72;101499.50;7404535;19;1821;-33
2022/10/22 07:28:29;;;;;;;;;;;;;;;20.53;59.03;101493.50;7404278;19;1924;-32
2022/10/22 07:30:57;;;;;;;;;;;;;;;20.56;59.10;101486.06;7404446;19;1964;-33
2022/10/22 07:33:26;;;;;;;;;;;;;;;20.52;58.98;101486.44;7402729;19;1944;-33
2022/10/22 07:35:59;;;;;;;;;;;;;;;20.53;58.80;101472.88;7403512;19;1602;-34
2022/10/22 07:38:27;;;;;;;;;;;;;;;20.51;59.05;101477.50;7403352;19;1827;-34
2022/10/22 07:40:56;;;;;;;;;;;;;;;20.57;58.98;101473.47;7401834;19;1863;-33
2022/10/22 07:43:24;;;;;;;;;;;;;;;20.54;59.73;101469.22;7402967;19;1828;-33
2022/10/22 07:45:54;;;;;;;;;;;;;;;20.52;59.71;101471.16;7402648;19;1913;-33
2022/10/22 07:48:22;;;;;;;;;;;;;;;20.55;59.48;101478.97;7401976;19;1582;-33
2022/10/22 07:50:51;;;;;;;;;;;;;;;20.60;59.51;101479.47;7402541;19;1643;-33
2022/10/22 07:53:22;;;;;;;;;;;;;;;20.69;59.64;101487.72;7401956;19;1920;-34
2022/10/22 07:55:51;;;;;;;;;;;;;;;20.70;59.04;101494.84;7403164;19;1742;-33
2022/10/22 07:58:19;;;;;;;;;;;;;;;20.65;58.99;101479.94;7402018;19;1842;-34
2022/10/22 08:00:48;;;;;;;;;;;;;;;20.72;59.89;101492.88;7402877;19;1853;-34
2022/10/22 08:03:17;;;;;;;;;;;;;;;20.68;59.64;101476.13;7403148;19;1583;-34
2022/10/22 08:05:46;;;;;;;;;;;;;;;20.65;59.91;101498.75;7400990;19;1591;-34
2022/10/22 08:08:14;;;;;;;;;;;;;;;20.69;59.57;101493.09;7402326;19;1904;-33
2022/10/22 08:10:45;;;;;;;;;;;;;;;20.64;59.70;101497.03;7401248;19;1831;-33
2022/10/22 08:13:14;;;;;;;;;;;;;;;20.68;60.11;101483.34;7401080;19;1910;-33
2022/10/22 08:15:45;;;;;;;;;;;;;;;20.60;60.07;101490.22;7401439;19;1740;-34
2022/10/22 08:18:14;;;;;;;;;;;;;;;20.62;59.97;101495.47;7402077;19;1555;-33
2022/10/22 08:20:43;;;;;;;;;;;;;;;20.60;60.03;101482.16;7402390;19;1733;-33
2022/10/22 08:23:11;;;;;;;;;;;;;;;20.58;60.13;101494.84;7400426;19;1895;-34
2022/10/22 08:25:39;;;;;;;;;;;;;;;20.56;59.90;101491.41;7401275;19;2054;-33
2022/10/22 08:28:10;;;;;;;;;;;;;;;20.57;59.83;101481.53;7401263;19;2018;-33
2022/10/22 08:30:39;;;;;;;;;;;;;;;20.58;60.10;101494.84;7401828;19;1964;-33
2022/10/22 08:33:07;;;;;;;;;;;;;;;20.55;60.02;101497.78;7401115;19;1854;-33
2022/10/22 08:35:35;;;;;;;;;;;;;;;20.55;60.07;101496.91;7402191;19;1907;-33
2022/10/22 08:38:04;;;;;;;;;;;;;;;20.52;60.21;101489.97;7400575;19;1892;-33
2022/10/22 08:40:33;;;;;;;;;;;;;;;20.47;58.05;101462.63;7400623;19;1804;-34
2022/10/22 08:43:08;;;;;;;;;;;;;;;20.48;59.08;101480.47;7399357;19;1856;-33
2022/10/22 08:45:42;;;;;;;;;;;;;;;20.52;58.90;101478.38;7400041;19;1759;-33
2022/10/22 08:48:16;;;;;;;;;;;;;;;20.51;59.49;101480.19;7399567;19;1824;-33
2022/10/22 08:50:47;;;;;;;;;;;;;;;20.54;59.46;101474.56;7401204;19;1897;-33
2022/10/22 08:53:16;;;;;;;;;;;;;;;20.59;59.15;101477.78;7400232;19;2254;-33
2022/10/22 08:55:45;;;;;;;;;;;;;;;20.56;59.22;101478.00;7401049;19;1949;-33
2022/10/22 08:58:19;;;;;;;;;;;;;;;20.63;59.98;101483.72;7400400;19;1958;-34
2022/10/22 09:00:54;;;;;;;;;;;;;;;20.58;59.63;101486.78;7399461;19;2037;-34
2022/10/22 09:03:30;;;;;;;;;;;;;;;20.56;58.38;101478.00;7396183;19;1846;-33
2022/10/22 09:06:03;;;;;;;;;;;;;;;20.54;60.03;101465.69;7396867;19;1387;-33
2022/10/22 09:08:31;;;;;;;;;;;;;;;20.53;60.16;101482.75;7401019;19;1210;-33
2022/10/22 09:11:03;;;;;;;;;;;;;;;20.53;59.61;101474.69;7397360;19;2037;-34
2022/10/22 09:13:31;;;;;;;;;;;;;;;20.55;59.83;101492.41;7399725;19;1683;-34
2022/10/22 09:16:03;;;;;;;;;;;;;;;20.53;59.85;101480.94;7401088;19;1811;-34
2022/10/22 09:18:36;;;;;;;;;;;;;;;20.51;60.21;101480.19;7399468;19;1807;-33
2022/10/22 09:21:11;;;;;;;;;;;;;;;20.51;59.91;101474.81;7398932;19;1786;-33
2022/10/22 09:23:41;;;;;;;;;;;;;;;20.50;60.37;101472.28;7400086;19;1822;-33
2022/10/22 09:26:13;;;;;;;;;;;;;;;20.50;60.66;101470.44;7399341;19;1728;-34
2022/10/22 09:28:42;;;;;;;;;;;;;;;20.53;60.80;101470.19;7406687;19;1635;-35
2022/10/22 09:31:15;;;;;;;;;;;;;;;20.52;60.13;101463.09;7407517;19;1794;-34
2022/10/22 09:33:44;;;;;;;;;;;;;;;20.59;59.74;101466.16;7405908;19;2040;-35
2022/10/22 09:36:15;;;;;;;;;;;;;;;20.61;59.04;101464.19;7407049;19;1854;-33
2022/10/22 09:38:47;;;;;;;;;;;;;;;20.62;60.95;101460.53;7407682;19;1826;-34
2022/10/22 09:41:15;;;;;;;;;;;;;;;20.67;61.92;101460.97;7405261;19;1861;-33
2022/10/22 09:43:43;;;;;;;;;;;;;;;20.73;61.79;101473.06;7404616;19;1607;-34
2022/10/22 09:46:18;;;;;;;;;;;;;;;20.70;61.75;101458.06;7407235;19;1569;-35
2022/10/22 09:48:49;;;;;;;;;;;;;;;20.74;61.89;101439.84;7405307;19;1780;-33
2022/10/22 09:51:20;;;;;;;;;;;;;;;20.78;62.31;101449.34;7406310;19;1816;-34
2022/10/22 09:53:49;;;;;;;;;;;;;;;20.84;62.93;101462.25;7405451;19;1858;-33
2022/10/22 09:56:20;;;;;;;;;;;;;;;20.80;63.87;101450.06;7404448;19;2125;-34
2022/10/22 09:58:51;;;;;;;;;;;;;;;20.77;65.35;101442.25;7405575;19;1829;-34
2022/10/22 10:01:25;;;;;;;;;;;;;;;20.81;65.07;101443.69;7407039;19;1049;-34
2022/10/22 10:03:54;;;;;;;;;;;;;;;20.79;65.22;101445.66;7405386;19;1944;-34
2022/10/22 10:06:23;;;;;;;;;;;;;;;20.80;64.90;101431.25;7404692;19;1805;-34
2022/10/22 10:08:52;;;;;;;;;;;;;;;20.88;66.62;101439.50;7405424;19;1826;-33
2022/10/22 10:11:25;;;;;;;;;;;;;;;20.91;66.57;101423.13;7404320;19;1755;-33
2022/10/22 10:13:57;;;;;;;;;;;;;;;20.86;66.80;101420.81;7404388;19;1843;-33
2022/10/22 10:16:35;;;;;;;;;;;;;;;20.89;66.46;101426.91;7405074;19;1921;-33
2022/10/22 10:19:10;;;;;;;;;;;;;;;20.89;66.42;101417.03;7405804;19;1734;-33
2022/10/22 10:21:44;;;;;;;;;;;;;;;20.89;66.63;101422.41;7404787;19;1870;-33
2022/10/22 10:24:16;;;;;;;;;;;;;;;20.96;67.66;101431.63;7405139;19;1899;-33
2022/10/22 10:26:47;;;;;;;;;;;;;;;20.88;67.75;101404.56;7405319;19;1768;-34
2022/10/22 10:29:23;;;;;;;;;;;;;;;20.91;67.54;101427.63;7404938;19;1670;-33
2022/10/22 10:32:06;;;;;;;;;;;;;;;20.97;67.19;101409.16;7405221;19;1637;-34
2022/10/22 10:34:42;;;;;;;;;;;;;;;20.97;66.58;101402.88;7403441;19;1729;-34
2022/10/22 10:37:16;;;;;;;;;;;;;;;20.96;66.78;101398.50;7403873;19;1730;-34
2022/10/22 10:39:53;;;;;;;;;;;;;;;20.95;67.20;101405.75;7405313;19;1366;-33
2022/10/22 10:42:26;;;;;;;;;;;;;;;20.91;66.88;101398.94;7403322;19;2057;-34
2022/10/22 10:45:01;;;;;;;;;;;;;;;20.96;66.47;101401.19;7403434;19;1752;-33
2022/10/22 10:47:55;;;;;;;;;;;;;;;20.91;66.10;101385.47;7404930;19;1656;-33
2022/10/22 10:50:30;;;;;;;;;;;;;;;20.89;66.37;101376.69;7404777;19;2111;-34
2022/10/22 10:53:04;;;;;;;;;;;;;;;20.85;66.29;101376.09;7402906;19;1904;-33
2022/10/22 10:55:34;;;;;;;;;;;;;;;20.83;66.07;101374.50;7403970;19;2034;-35
2022/10/22 10:58:10;;;;;;;;;;;;;;;20.81;65.89;101352.28;7401479;19;1941;-34
2022/10/22 11:00:43;;;;;;;;;;;;;;;20.86;65.73;101364.34;7402177;19;1867;-36
2022/10/22 11:03:30;;;;;;;;;;;;;;;20.86;65.71;101355.44;7401337;19;1988;-33
2022/10/22 11:06:03;;;;;;;;;;;;;;;20.86;65.65;101355.44;7401180;19;1922;-34
2022/10/22 11:08:32;;;;;;;;;;;;;;;20.83;65.61;101355.69;7404751;19;1820;-34
2022/10/22 11:11:03;;;;;;;;;;;;;;;20.82;65.88;101336.03;7403346;19;1821;-33
2022/10/22 11:13:33;;;;;;;;;;;;;;;20.81;65.68;101336.16;7404552;19;1460;-33
2022/10/22 11:16:05;;;;;;;;;;;;;;;20.82;65.34;101319.06;7402935;19;1898;-33
2022/10/22 11:18:37;;;;;;;;;;;;;;;20.83;65.26;101323.44;7402591;19;1946;-33
2022/10/22 11:21:12;;;;;;;;;;;;;;;20.86;65.29;101317.81;7403103;19;1576;-33
2022/10/22 11:23:44;;;;;;;;;;;;;;;20.82;65.29;101302.94;7401253;19;1850;-33
2022/10/22 11:26:15;;;;;;;;;;;;;;;20.79;65.43;101309.44;7402267;19;1471;-35
2022/10/22 11:28:45;;;;;;;;;;;;;;;20.81;65.69;101287.78;7402539;19;1708;-33
2022/10/22 11:31:16;;;;;;;;;;;;;;;20.80;65.29;101303.06;7404058;19;1636;-33
2022/10/22 11:33:47;;;;;;;;;;;;;;;20.78;65.16;101293.44;7402089;19;1922;-33
2022/10/22 11:36:20;;;;;;;;;;;;;;;20.76;65.29;101290.03;7401233;19;1943;-33
2022/10/22 11:38:48;;;;;;;;;;;;;;;20.75;65.62;101266.81;7403371;19;1865;-34
2022/10/22 11:41:19;;;;;;;;;;;;;;;20.75;63.04;101278.44;7402717;19;1834;-33
2022/10/22 11:43:54;;;;;;;;;;;;;;;20.74;64.15;101260.59;7399476;19;2024;-33
2022/10/22 11:46:31;;;;;;;;;;;;;;;20.78;61.68;101280.00;7402765;19;1872;-32
2022/10/22 11:49:04;;;;;;;;;;;;;;;20.76;62.38;101273.91;7403102;19;1748;-33
2022/10/22 11:51:37;;;;;;;;;;;;;;;20.71;63.44;101260.88;7401521;19;1749;-33
2022/10/22 11:54:25;;;;;;;;;;;;;;;20.78;63.26;101250.44;7402921;19;1674;-34
2022/10/22 11:56:54;;;;;;;;;;;;;;;20.89;63.57;101266.47;7399919;19;1512;-34
2022/10/22 11:59:35;;;;;;;;;;;;;;;20.85;62.76;101256.97;7400903;19;1733;-33
2022/10/22 12:02:04;;;;;;;;;;;;;;;20.78;63.46;101250.44;7402369;19;1946;-34
2022/10/22 12:04:42;;;;;;;;;;;;;;;20.85;61.93;101243.53;7400580;19;1584;-34
2022/10/22 12:07:25;;;;;;;;;;;;;;;20.85;62.69;101224.72;7401371;19;1591;-34
2022/10/22 12:09:57;;;;;;;;;;;;;;;20.89;62.81;101226.16;7398891;19;1972;-33
2022/10/22 12:12:26;;;;;;;;;;;;;;;20.77;62.32;101217.34;7401292;19;2074;-35
2022/10/22 12:14:55;;;;;;;;;;;;;;;20.85;61.84;101222.88;7400571;19;1557;-35
2022/10/22 12:17:24;;;;;;;;;;;;;;;20.97;61.92;101226.31;7400122;19;1697;-34
2022/10/22 12:19:56;;;;;;;;;;;;;;;21.03;61.84;101215.00;7401212;19;1810;-33
2022/10/22 12:22:25;;;;;;;;;;;;;;;21.06;62.11;101212.03;7400698;19;1825;-35
2022/10/22 12:24:57;;;;;;;;;;;;;;;21.11;62.38;101222.38;7401676;19;1971;-34
2022/10/22 12:27:26;;;;;;;;;;;;;;;21.17;62.39;101210.19;7400631;19;1859;-34
2022/10/22 12:29:58;;;;;;;;;;;;;;;21.16;62.43;101209.34;7399617;19;1533;-33
2022/10/22 12:32:36;;;;;;;;;;;;;;;21.13;62.53;101212.34;7401410;19;1727;-33
2022/10/22 12:35:06;;;;;;;;;;;;;;;21.06;63.23;101211.19;7398732;19;1615;-34
2022/10/22 12:37:36;;;;;;;;;;;;;;;21.09;63.29;101204.66;7396392;19;1495;-34
2022/10/22 12:40:17;;;;;;;;;;;;;;;21.09;63.32;101199.28;7401132;19;1312;-35
2022/10/22 12:42:49;;;;;;;;;;;;;;;21.13;63.87;101193.50;7399640;19;1869;-36
2022/10/22 12:45:17;;;;;;;;;;;;;;;21.10;63.50;101184.88;7400379;19;1569;-34
2022/10/22 12:47:47;;;;;;;;;;;;;;;21.01;63.18;101192.78;7396603;19;1650;-33
2022/10/22 12:50:19;;;;;;;;;;;;;;;20.99;63.56;101215.41;7399680;19;1408;-34
2022/10/22 12:52:47;;;;;;;;;;;;;;;21.08;63.67;101202.97;7398706;19;1706;-34
2022/10/22 12:55:21;;;;;;;;;;;;;;;20.92;62.92;101196.28;7397192;19;1956;-33
2022/10/22 12:57:49;;;;;;;;;;;;;;;20.88;63.71;101194.88;7399014;19;1735;-34
2022/10/22 13:00:22;;;;;;;;;;;;;;;20.91;64.26;101180.28;7400045;19;1449;-34
2022/10/22 13:02:50;;;;;;;;;;;;;;;20.90;64.44;101189.34;7402831;19;1839;-33
2022/10/22 13:05:23;;;;;;;;;;;;;;;20.84;64.27;101174.63;7405961;19;2069;-34
2022/10/22 13:07:52;;;;;;;;;;;;;;;20.82;64.46;101164.00;7408293;19;1971;-34
2022/10/22 13:10:25;;;;;;;;;;;;;;;20.78;64.63;101175.19;7408530;19;1591;-35
2022/10/22 13:12:56;;;;;;;;;;;;;;;20.74;64.43;101171.91;7406947;19;1805;-34
2022/10/22 13:15:35;;;;;;;;;;;;;;;20.70;64.44;101166.97;7408069;19;1821;-35
2022/10/22 13:18:04;;;;;;;;;;;;;;;20.69;64.32;101167.94;7405633;19;1890;-33
2022/10/22 13:20:36;;;;;;;;;;;;;;;20.73;64.58;101177.41;7407431;19;1807;-34
2022/10/22 13:23:05;;;;;;;;;;;;;;;20.63;64.19;101146.00;7405754;19;1870;-34
2022/10/22 13:25:37;;;;;;;;;;;;;;;20.63;64.24;101156.75;7407212;19;2065;-34
2022/10/22 13:28:14;;;;;;;;;;;;;;;20.60;64.34;101143.59;7406644;19;2057;-33
2022/10/22 13:30:52;;;;;;;;;;;;;;;20.64;64.31;101158.44;7405462;19;1595;-33
2022/10/22 13:33:25;;;;;;;;;;;;;;;20.58;64.01;101148.22;7405904;19;2034;-33